X  Stänga Metar väderdata för luftfart     EDDL Düsseldorf Airport
Temperatur
7°C Temperatur
3°C Daggpunkt
76% Fuktighet



Vind
11 KM/T
7 MPH
3 M/S
6 KTS



40°
Nuvarande omständigheter

Delvis molnigt Delvis molnigt
Tryck 1022.01 (hPa) - 30.18 (inHg)
Synlighet 6 (mil) - 9.7 (km)
Flygplats
Flygplatskod EDDL

Plats: Düsseldorf Airport
Distans: 30 (km)

Metar:
EDDL 221520Z AUTO 04006KT 010V070 9999 FEW016 07/03 Q1022 NOSIG

Tid: 22-04-2024 15:20 CEST